createdAt,value
2023-10-12T00:04:51.622Z,41.13
2023-10-12T00:09:49.714Z,41.53
2023-10-12T00:14:42.572Z,32.87
2023-10-12T00:19:34.512Z,36.35
2023-10-12T00:24:26.481Z,41.58
2023-10-12T00:29:19.886Z,29.38
2023-10-12T00:34:13.644Z,39.17
2023-10-12T00:39:10.453Z,31.17
2023-10-12T00:44:08.144Z,27.08
2023-10-12T00:49:20.342Z,38.95
2023-10-12T00:54:12.118Z,33.00
2023-10-12T00:59:04.858Z,27.25
2023-10-12T01:03:56.903Z,39.45
2023-10-12T01:08:48.996Z,33.40
2023-10-12T01:13:44.335Z,29.85
2023-10-12T01:18:36.951Z,33.35
2023-10-12T01:23:29.072Z,31.05
2023-10-12T01:28:21.505Z,32.45
2023-10-12T01:33:14.656Z,29.15
2023-10-12T01:38:09.452Z,30.70
2023-10-12T01:43:02.361Z,33.92
2023-10-12T01:48:06.417Z,31.83
2023-10-12T01:53:00.264Z,26.75
2023-10-12T01:57:55.359Z,31.92
2023-10-12T02:02:55.029Z,27.30
2023-10-12T02:07:47.088Z,24.27
2023-10-12T02:12:41.830Z,27.50
2023-10-12T02:17:36.728Z,29.17
2023-10-12T02:22:31.858Z,37.13
2023-10-12T02:27:25.256Z,27.27
2023-10-12T02:32:19.514Z,23.83
2023-10-12T02:37:11.462Z,26.33
2023-10-12T02:42:18.203Z,32.05
2023-10-12T02:47:23.730Z,25.63
2023-10-12T02:52:17.341Z,26.80
2023-10-12T02:57:10.767Z,29.85
2023-10-12T03:02:19.754Z,35.17
2023-10-12T03:07:12.592Z,31.88
2023-10-12T03:12:05.429Z,29.90
2023-10-12T03:17:04.142Z,28.60
2023-10-12T03:22:04.981Z,36.55
2023-10-12T03:27:12.399Z,34.30
2023-10-12T03:32:06.459Z,33.53
2023-10-12T03:37:02.918Z,32.30
2023-10-12T03:41:56.491Z,39.55
2023-10-12T03:46:58.151Z,37.92
2023-10-12T03:51:51.116Z,29.92
2023-10-12T03:56:42.887Z,30.90
2023-10-12T04:01:40.929Z,26.60
2023-10-12T04:06:52.764Z,25.60
2023-10-12T04:11:50.074Z,31.60
2023-10-12T04:16:41.911Z,22.05
2023-10-12T04:21:58.857Z,23.05
2023-10-12T04:27:23.041Z,28.10
2023-10-12T04:32:28.784Z,25.05
2023-10-12T04:37:23.521Z,30.08
2023-10-12T04:42:21.974Z,28.52
2023-10-12T04:47:21.228Z,29.23
2023-10-12T04:52:13.247Z,43.55
2023-10-12T04:57:05.141Z,46.58
2023-10-12T05:02:17.091Z,47.58
2023-10-12T05:07:18.034Z,49.80
2023-10-12T05:12:11.844Z,53.95
2023-10-12T05:17:04.603Z,63.42
2023-10-12T05:21:59.513Z,53.00
2023-10-12T05:27:20.769Z,59.83
2023-10-12T05:32:35.674Z,52.63
2023-10-12T05:37:38.952Z,43.28
2023-10-12T05:42:34.553Z,47.80
2023-10-12T05:47:32.616Z,49.90
2023-10-12T05:52:27.618Z,48.50
2023-10-12T05:57:20.496Z,46.38
2023-10-12T06:02:12.862Z,40.90
2023-10-12T06:07:04.774Z,36.75
2023-10-12T06:11:57.378Z,39.47
2023-10-12T06:16:58.364Z,29.38
2023-10-12T06:21:52.570Z,30.60
2023-10-12T06:26:45.758Z,32.75
2023-10-12T06:31:37.642Z,34.08
2023-10-12T06:36:38.749Z,30.95
2023-10-12T06:41:36.352Z,37.35
2023-10-12T06:46:44.881Z,27.40
2023-10-12T06:51:36.853Z,37.07
2023-10-12T06:56:28.943Z,29.50
2023-10-12T07:01:27.618Z,29.88
2023-10-12T07:06:19.966Z,30.75
2023-10-12T07:11:12.766Z,36.25
2023-10-12T07:16:07.604Z,29.48
2023-10-12T07:21:00.884Z,29.88
2023-10-12T07:26:03.268Z,27.27
2023-10-12T07:31:06.608Z,28.13
2023-10-12T07:36:12.618Z,30.30
2023-10-12T07:41:10.395Z,35.00
2023-10-12T07:46:15.808Z,32.83
2023-10-12T07:51:26.198Z,32.78
2023-10-12T07:56:19.094Z,31.73
2023-10-12T08:01:26.335Z,27.70
2023-10-12T08:06:33.476Z,30.30
2023-10-12T08:11:36.453Z,29.20
2023-10-12T08:16:29.634Z,41.95
2023-10-12T08:21:30.940Z,32.42
2023-10-12T08:26:36.249Z,40.67
2023-10-12T08:31:31.743Z,31.98
2023-10-12T08:36:23.727Z,34.38
2023-10-12T08:41:21.251Z,29.17
2023-10-12T08:46:14.650Z,40.57
2023-10-12T08:51:10.929Z,33.08
2023-10-12T08:56:07.507Z,37.08
2023-10-12T09:01:00.290Z,35.13
2023-10-12T09:05:53.152Z,34.20
2023-10-12T09:11:13.927Z,29.20
2023-10-12T09:16:11.088Z,36.35
2023-10-12T09:21:03.593Z,26.15
2023-10-12T09:26:08.553Z,33.08
2023-10-12T09:31:01.712Z,29.13
2023-10-12T09:36:01.770Z,22.98
2023-10-12T09:40:56.952Z,29.20
2023-10-12T09:45:49.311Z,33.22
2023-10-12T09:50:41.782Z,23.65
2023-10-12T09:55:34.730Z,35.97
2023-10-12T10:00:29.820Z,28.73
2023-10-12T10:05:27.982Z,36.30
2023-10-12T10:10:34.708Z,36.75
2023-10-12T10:15:37.465Z,35.90
2023-10-12T10:20:29.438Z,31.23
2023-10-12T10:25:22.618Z,31.67
2023-10-12T10:30:29.708Z,36.92
2023-10-12T10:35:24.264Z,32.08
2023-10-12T10:40:20.793Z,35.70
2023-10-12T10:45:17.004Z,34.97
2023-10-12T10:50:16.405Z,41.95
2023-10-12T10:55:11.844Z,39.13
2023-10-12T11:00:11.570Z,45.60
2023-10-12T11:05:03.553Z,43.67
2023-10-12T11:09:59.521Z,36.88
2023-10-12T11:15:01.902Z,36.72
2023-10-12T11:19:54.104Z,30.92
2023-10-12T11:24:50.465Z,26.27
2023-10-12T11:29:51.527Z,34.65
2023-10-12T11:34:53.849Z,38.58
2023-10-12T11:39:48.163Z,29.27
2023-10-12T11:44:43.937Z,32.58
2023-10-12T11:49:57.390Z,28.60
2023-10-12T11:54:49.796Z,41.05
2023-10-12T11:59:43.538Z,45.38
2023-10-12T12:04:49.866Z,37.30
2023-10-12T12:09:49.784Z,34.90
2023-10-12T12:14:47.362Z,35.20
2023-10-12T12:19:42.625Z,34.42
2023-10-12T12:24:34.569Z,34.63
2023-10-12T12:29:32.811Z,34.88
2023-10-12T12:34:39.735Z,32.63
2023-10-12T12:39:34.177Z,32.78
2023-10-12T12:44:26.024Z,34.47
2023-10-12T12:49:17.852Z,45.47
2023-10-12T12:54:09.703Z,30.08
2023-10-12T12:59:01.582Z,27.13
2023-10-12T13:03:56.765Z,28.95
2023-10-12T13:08:49.294Z,26.77
2023-10-12T13:13:41.212Z,35.63
2023-10-12T13:18:36.407Z,26.10
2023-10-12T13:23:28.258Z,28.25
2023-10-12T13:28:21.055Z,26.40
2023-10-12T13:33:13.194Z,26.35
2023-10-12T13:38:06.589Z,26.10
2023-10-12T13:43:17.006Z,28.33
2023-10-12T13:48:11.850Z,29.75
2023-10-12T13:53:04.793Z,26.83
2023-10-12T13:58:01.305Z,23.67
2023-10-12T14:03:00.339Z,33.83
2023-10-12T14:07:55.362Z,33.38
2023-10-12T14:12:47.252Z,31.65
2023-10-12T14:17:39.084Z,30.63
2023-10-12T14:22:30.924Z,27.05
2023-10-12T14:27:22.819Z,28.55
2023-10-12T14:37:14.812Z,36.08
2023-10-12T14:42:07.677Z,24.75
2023-10-12T14:47:00.001Z,36.67
2023-10-12T14:51:51.991Z,29.35
2023-10-12T14:56:44.269Z,34.20
2023-10-12T15:01:36.241Z,27.00
2023-10-12T15:06:33.231Z,29.50
2023-10-12T15:11:26.627Z,32.87
2023-10-12T15:16:20.115Z,30.05
2023-10-12T15:21:28.747Z,36.67
2023-10-12T15:26:24.124Z,30.83
2023-10-12T15:31:18.176Z,25.48
2023-10-12T15:36:16.027Z,26.45
2023-10-12T15:41:07.918Z,30.88
2023-10-12T15:45:59.813Z,33.85
2023-10-12T15:50:51.636Z,32.25
2023-10-12T15:55:45.807Z,25.13
2023-10-12T16:00:37.834Z,27.30
2023-10-12T16:05:30.705Z,22.30
2023-10-12T16:10:22.883Z,25.67
2023-10-12T16:15:15.568Z,20.88
2023-10-12T16:20:10.547Z,22.92
2023-10-12T16:25:08.287Z,25.67
2023-10-12T16:30:01.077Z,24.35
2023-10-12T16:34:53.114Z,25.08
2023-10-12T16:39:46.222Z,28.70
2023-10-12T16:44:38.011Z,26.27
2023-10-12T16:49:32.322Z,20.80
2023-10-12T16:54:24.205Z,19.65
2023-10-12T16:59:19.555Z,25.52
2023-10-12T17:04:34.434Z,28.00
2023-10-12T17:09:26.444Z,35.25
2023-10-12T17:14:19.513Z,26.27
2023-10-12T17:19:12.166Z,28.10
2023-10-12T17:24:06.622Z,26.65
2023-10-12T17:28:58.726Z,26.85
2023-10-12T17:33:50.597Z,30.48
2023-10-12T17:38:45.432Z,30.10
2023-10-12T17:43:37.668Z,32.67
2023-10-12T17:48:29.616Z,33.20
2023-10-12T17:53:22.573Z,32.22
2023-10-12T17:58:16.169Z,38.22
2023-10-12T18:03:08.089Z,31.33
2023-10-12T18:08:00.126Z,29.08
2023-10-12T18:12:53.362Z,30.80
2023-10-12T18:17:46.242Z,37.40
2023-10-12T18:22:38.094Z,29.75
2023-10-12T18:27:30.140Z,27.45
2023-10-12T18:32:23.143Z,31.95
2023-10-12T18:37:15.286Z,25.70
2023-10-12T18:42:07.455Z,34.33
2023-10-12T18:46:59.352Z,34.33
2023-10-12T18:51:51.329Z,32.92
2023-10-12T18:56:43.197Z,33.55
2023-10-12T19:01:35.418Z,40.22
2023-10-12T19:06:27.611Z,33.30
2023-10-12T19:11:19.490Z,30.95
2023-10-12T19:16:16.956Z,37.65
2023-10-12T19:21:09.186Z,32.90
2023-10-12T19:26:00.994Z,26.73
2023-10-12T19:30:58.091Z,40.35
2023-10-12T19:35:50.056Z,30.63
2023-10-12T19:40:42.851Z,27.02
2023-10-12T19:45:37.672Z,36.72
2023-10-12T19:50:30.563Z,35.08
2023-10-12T19:55:23.252Z,31.48
2023-10-12T20:00:45.316Z,29.42
2023-10-12T20:05:38.826Z,32.92
2023-10-12T20:10:30.673Z,35.75
2023-10-12T20:15:22.407Z,36.33
2023-10-12T20:20:19.887Z,36.60
2023-10-12T20:25:13.291Z,36.78
2023-10-12T20:30:05.731Z,30.92
2023-10-12T20:34:57.501Z,44.05
2023-10-12T20:39:49.351Z,36.75
2023-10-12T20:44:43.003Z,36.78
2023-10-12T20:49:40.304Z,38.20
2023-10-12T20:54:42.651Z,36.40
2023-10-12T20:59:37.882Z,42.03
2023-10-12T21:04:32.665Z,34.63
2023-10-12T21:09:31.398Z,41.90
2023-10-12T21:19:21.605Z,32.08
2023-10-12T21:24:19.938Z,36.22
2023-10-12T21:29:19.849Z,38.80
2023-10-12T21:34:12.542Z,37.25
2023-10-12T21:39:10.711Z,37.25
2023-10-12T21:44:04.829Z,39.03
2023-10-12T21:48:58.573Z,33.45
2023-10-12T21:53:54.356Z,34.78
2023-10-12T21:58:47.136Z,34.20
2023-10-12T22:03:39.944Z,36.42
2023-10-12T22:08:32.327Z,37.53
2023-10-12T22:13:38.315Z,39.92
2023-10-12T22:18:31.775Z,32.45
2023-10-12T22:23:24.298Z,33.35
2023-10-12T22:28:16.172Z,40.53
2023-10-12T22:33:08.238Z,42.88
2023-10-12T22:38:00.154Z,36.25
2023-10-12T22:42:51.917Z,40.80
2023-10-12T22:47:46.968Z,33.05
2023-10-12T22:52:40.297Z,41.78
2023-10-12T22:57:32.147Z,40.67
2023-10-12T23:02:24.083Z,35.50
2023-10-12T23:07:16.069Z,39.50
2023-10-12T23:12:12.576Z,30.00
2023-10-12T23:17:06.121Z,34.30
2023-10-12T23:22:01.780Z,33.30
2023-10-12T23:26:53.938Z,32.08
2023-10-12T23:31:45.813Z,34.42
2023-10-12T23:36:39.170Z,36.13
2023-10-12T23:41:33.661Z,29.42
2023-10-12T23:46:27.180Z,27.63
2023-10-12T23:51:18.965Z,33.85
2023-10-12T23:56:15.808Z,33.70
